createdAt,value
2022-12-29T00:01:28.186Z,9.60
2022-12-29T00:06:31.586Z,9.90
2022-12-29T00:11:34.699Z,11.00
2022-12-29T00:16:38.633Z,10.30
2022-12-29T00:22:00.101Z,10.40
2022-12-29T00:27:21.810Z,10.10
2022-12-29T00:32:43.349Z,9.90
2022-12-29T00:38:08.257Z,9.90
2022-12-29T00:43:30.537Z,10.00
2022-12-29T00:48:52.074Z,9.30
2022-12-29T00:53:55.076Z,10.70
2022-12-29T00:59:05.452Z,11.30
2022-12-29T01:04:09.077Z,10.20
2022-12-29T01:09:31.232Z,9.20
2022-12-29T01:14:34.877Z,10.50
2022-12-29T01:19:38.063Z,8.90
2022-12-29T01:24:41.067Z,10.30
2022-12-29T01:29:44.177Z,9.30
2022-12-29T01:34:47.181Z,10.30
2022-12-29T01:39:50.193Z,9.60
2022-12-29T01:44:57.217Z,10.60
2022-12-29T01:50:06.918Z,11.50
2022-12-29T01:55:12.269Z,10.20
2022-12-29T02:00:15.855Z,10.70
2022-12-29T02:05:56.339Z,10.10
2022-12-29T02:11:01.280Z,10.20
2022-12-29T02:16:16.324Z,10.90
2022-12-29T02:21:55.007Z,10.80
2022-12-29T02:27:29.147Z,10.90
2022-12-29T02:32:38.294Z,10.70
2022-12-29T02:38:05.467Z,11.10
2022-12-29T02:43:23.828Z,11.00
2022-12-29T02:48:33.831Z,12.20
2022-12-29T02:53:56.462Z,11.40
2022-12-29T02:58:59.985Z,11.90
2022-12-29T03:04:21.732Z,11.40
2022-12-29T03:09:37.851Z,11.70
2022-12-29T03:15:25.825Z,12.00
2022-12-29T03:20:40.122Z,11.80
2022-12-29T03:25:49.657Z,12.50
2022-12-29T03:30:52.777Z,12.20
2022-12-29T03:36:00.722Z,12.60
2022-12-29T03:41:09.926Z,11.70
2022-12-29T03:46:13.302Z,12.20
2022-12-29T03:51:16.338Z,12.10
2022-12-29T03:56:22.216Z,11.50
2022-12-29T04:01:25.468Z,11.40
2022-12-29T04:06:28.484Z,11.30
2022-12-29T04:11:33.230Z,11.10
2022-12-29T04:16:40.015Z,10.80
2022-12-29T04:21:43.083Z,10.10
2022-12-29T04:26:46.192Z,10.80
2022-12-29T04:31:49.507Z,11.00
2022-12-29T04:36:52.413Z,10.00
2022-12-29T04:41:55.425Z,9.90
2022-12-29T04:46:58.437Z,9.40
2022-12-29T04:52:01.535Z,8.70
2022-12-29T04:57:04.644Z,9.00
2022-12-29T05:02:08.208Z,9.00
2022-12-29T05:07:11.370Z,9.10
2022-12-29T05:12:14.786Z,7.90
2022-12-29T05:17:17.906Z,8.50
2022-12-29T05:22:22.026Z,8.70
2022-12-29T05:27:25.363Z,8.20
2022-12-29T05:32:28.461Z,7.60
2022-12-29T05:37:31.666Z,7.90
2022-12-29T05:42:35.795Z,7.90
2022-12-29T05:47:38.702Z,8.10
2022-12-29T05:52:41.704Z,8.70
2022-12-29T05:57:44.711Z,8.80
2022-12-29T06:02:48.208Z,7.80
2022-12-29T06:07:51.337Z,7.70
2022-12-29T06:12:54.577Z,9.00
2022-12-29T06:17:57.658Z,7.80
2022-12-29T06:23:00.873Z,7.80
2022-12-29T06:28:06.267Z,7.30
2022-12-29T06:33:09.764Z,7.40
2022-12-29T06:38:13.372Z,7.40
2022-12-29T06:43:16.691Z,7.50
2022-12-29T06:48:19.586Z,8.60
2022-12-29T06:53:22.804Z,6.80
2022-12-29T06:58:25.811Z,7.30
2022-12-29T07:03:28.877Z,6.90
2022-12-29T07:08:32.139Z,6.90
2022-12-29T07:13:35.337Z,6.00
2022-12-29T07:18:38.910Z,7.30
2022-12-29T07:23:42.170Z,7.20
2022-12-29T07:28:45.588Z,6.80
2022-12-29T07:33:49.312Z,6.90
2022-12-29T07:38:52.627Z,6.40
2022-12-29T07:43:55.739Z,7.40
2022-12-29T07:48:58.838Z,6.90
2022-12-29T07:54:01.943Z,6.60
2022-12-29T07:59:05.426Z,6.50
2022-12-29T08:04:08.430Z,5.70
2022-12-29T08:09:17.967Z,6.60
2022-12-29T08:14:22.885Z,7.10
2022-12-29T08:19:26.407Z,11.70
2022-12-29T08:24:29.713Z,7.20
2022-12-29T08:29:32.718Z,6.60
2022-12-29T08:34:35.723Z,6.30
2022-12-29T08:39:38.747Z,6.50
2022-12-29T08:44:41.756Z,6.30
2022-12-29T08:49:44.850Z,6.30
2022-12-29T08:54:47.874Z,6.50
2022-12-29T08:59:50.861Z,5.90
2022-12-29T09:04:53.948Z,5.90
2022-12-29T09:09:57.083Z,5.80
2022-12-29T09:15:00.389Z,7.40
2022-12-29T09:20:04.374Z,14.20
2022-12-29T09:25:07.921Z,6.20
2022-12-29T09:30:13.327Z,6.30
2022-12-29T09:35:17.668Z,6.10
2022-12-29T09:40:31.102Z,6.20
2022-12-29T09:45:42.046Z,6.70
2022-12-29T09:50:51.137Z,7.40
2022-12-29T09:56:01.206Z,6.70
2022-12-29T10:01:30.296Z,6.10
2022-12-29T10:06:56.201Z,6.60
2022-12-29T10:12:02.350Z,6.40
2022-12-29T10:17:33.746Z,6.40
2022-12-29T10:22:55.379Z,7.40
2022-12-29T10:28:02.874Z,8.10
2022-12-29T10:33:11.389Z,8.40
2022-12-29T10:38:19.724Z,6.80
2022-12-29T10:43:31.613Z,7.30
2022-12-29T10:48:36.349Z,9.90
2022-12-29T10:53:51.800Z,8.50
2022-12-29T10:58:59.416Z,9.80
2022-12-29T11:04:24.137Z,7.90
2022-12-29T11:09:42.417Z,9.60
2022-12-29T11:14:46.225Z,12.10
2022-12-29T11:19:49.224Z,25.30
2022-12-29T11:24:54.696Z,13.30
2022-12-29T11:29:57.902Z,14.70
2022-12-29T11:35:02.090Z,8.70
2022-12-29T11:40:23.630Z,11.10
2022-12-29T11:45:30.471Z,8.30
2022-12-29T11:50:37.273Z,8.00
2022-12-29T11:55:41.000Z,8.70
2022-12-29T12:00:47.275Z,7.70
2022-12-29T12:05:55.090Z,8.10
2022-12-29T12:11:15.936Z,7.40
2022-12-29T12:16:28.600Z,11.90
2022-12-29T12:21:45.771Z,7.90
2022-12-29T12:26:49.621Z,14.90
2022-12-29T12:31:58.362Z,9.80
2022-12-29T12:37:16.827Z,8.80
2022-12-29T12:42:25.981Z,7.20
2022-12-29T12:47:57.252Z,7.20
2022-12-29T12:53:17.027Z,7.90
2022-12-29T12:58:39.011Z,9.10
2022-12-29T13:03:51.298Z,8.50
2022-12-29T13:09:13.281Z,8.30
2022-12-29T13:14:22.547Z,7.30
2022-12-29T13:19:34.646Z,8.00
2022-12-29T13:24:45.863Z,8.80
2022-12-29T13:30:02.426Z,8.30
2022-12-29T13:35:35.587Z,9.50
2022-12-29T13:40:44.938Z,8.70
2022-12-29T13:46:01.298Z,8.80
2022-12-29T13:51:06.586Z,30.20
2022-12-29T13:56:21.734Z,20.70
2022-12-29T14:01:49.741Z,26.00
2022-12-29T14:07:16.067Z,12.90
2022-12-29T14:12:26.747Z,9.60
2022-12-29T14:17:29.753Z,19.70
2022-12-29T14:22:33.577Z,16.10
2022-12-29T14:27:54.068Z,8.30
2022-12-29T14:33:13.860Z,9.30
2022-12-29T14:38:20.174Z,19.40
2022-12-29T14:43:27.218Z,16.40
2022-12-29T14:49:02.160Z,8.70
2022-12-29T14:54:39.543Z,8.10
2022-12-29T14:59:43.882Z,14.60
2022-12-29T15:04:48.730Z,19.80
2022-12-29T15:10:14.750Z,13.80
2022-12-29T15:15:31.013Z,16.50
2022-12-29T15:20:34.323Z,30.60
2022-12-29T15:25:37.888Z,32.50
2022-12-29T15:30:56.259Z,15.90
2022-12-29T15:36:04.839Z,16.90
2022-12-29T15:41:27.862Z,19.10
2022-12-29T15:46:32.738Z,20.80
2022-12-29T15:51:40.867Z,20.30
2022-12-29T15:56:44.092Z,34.40
2022-12-29T16:01:47.484Z,29.10
2022-12-29T16:07:02.811Z,57.70
2022-12-29T16:12:14.725Z,15.20
2022-12-29T16:17:22.749Z,13.60
2022-12-29T16:22:35.800Z,10.20
2022-12-29T16:27:41.782Z,8.70
2022-12-29T16:32:54.208Z,8.10
2022-12-29T16:38:22.603Z,8.20
2022-12-29T16:43:25.706Z,8.80
2022-12-29T16:48:31.987Z,9.00
2022-12-29T16:53:52.001Z,8.10
2022-12-29T16:59:05.909Z,8.90
2022-12-29T17:04:14.299Z,8.50
2022-12-29T17:09:22.637Z,8.10
2022-12-29T17:14:40.427Z,12.10
2022-12-29T17:19:47.034Z,10.50
2022-12-29T17:24:50.003Z,12.70
2022-12-29T17:29:57.239Z,8.90
2022-12-29T17:35:00.283Z,9.40
2022-12-29T17:40:05.208Z,9.20
2022-12-29T17:45:17.873Z,8.70
2022-12-29T17:50:23.848Z,8.80
2022-12-29T17:55:32.765Z,12.70
2022-12-29T18:00:40.349Z,9.60
2022-12-29T18:05:43.827Z,9.70
2022-12-29T18:10:47.657Z,14.40
2022-12-29T18:15:51.571Z,10.70
2022-12-29T18:20:59.155Z,9.90
2022-12-29T18:26:04.238Z,10.20
2022-12-29T18:31:21.472Z,10.00
2022-12-29T18:36:24.597Z,10.20
2022-12-29T18:41:32.432Z,10.40
2022-12-29T18:46:35.423Z,10.60
2022-12-29T18:51:38.420Z,10.40
2022-12-29T18:56:41.428Z,11.30
2022-12-29T19:01:44.671Z,11.10
2022-12-29T19:06:47.743Z,11.40
2022-12-29T19:11:50.958Z,11.90
2022-12-29T19:16:53.964Z,12.00
2022-12-29T19:21:58.299Z,13.20
2022-12-29T19:27:01.418Z,11.80
2022-12-29T19:32:04.526Z,11.70
2022-12-29T19:37:07.644Z,12.60
2022-12-29T19:42:10.628Z,13.00
2022-12-29T19:47:14.607Z,12.30
2022-12-29T19:52:17.678Z,12.00
2022-12-29T19:57:22.335Z,11.60
2022-12-29T20:02:28.300Z,10.30
2022-12-29T20:07:31.607Z,12.40
2022-12-29T20:12:36.674Z,11.30
2022-12-29T20:18:11.567Z,11.90
2022-12-29T20:23:02.743Z,14.30
2022-12-29T20:28:05.853Z,15.20
2022-12-29T20:33:09.093Z,15.70
2022-12-29T20:38:12.062Z,17.40
2022-12-29T20:43:16.296Z,16.00
2022-12-29T20:48:19.415Z,17.30
2022-12-29T20:53:22.424Z,19.50
2022-12-29T20:58:25.787Z,16.20
2022-12-29T21:03:29.491Z,12.30
2022-12-29T21:08:32.569Z,14.30
2022-12-29T21:13:35.880Z,13.50
2022-12-29T21:18:40.073Z,10.90
2022-12-29T21:23:43.125Z,11.00
2022-12-29T21:28:46.898Z,9.40
2022-12-29T21:33:50.336Z,9.30
2022-12-29T21:38:53.741Z,8.80
2022-12-29T21:44:17.271Z,8.50
2022-12-29T21:49:21.655Z,7.60
2022-12-29T21:54:45.708Z,8.10
2022-12-29T22:00:07.659Z,8.00
2022-12-29T22:05:34.584Z,7.00
2022-12-29T22:11:01.901Z,8.50
2022-12-29T22:16:10.977Z,8.60
2022-12-29T22:21:14.369Z,8.30
2022-12-29T22:26:17.982Z,8.90
2022-12-29T22:31:27.452Z,9.20
2022-12-29T22:36:31.590Z,9.20
2022-12-29T22:41:34.582Z,9.70
2022-12-29T22:46:37.543Z,8.40
2022-12-29T22:51:40.605Z,8.80
2022-12-29T22:56:43.701Z,8.80
2022-12-29T23:01:47.255Z,8.20
2022-12-29T23:06:50.224Z,7.40
2022-12-29T23:11:53.541Z,9.80
2022-12-29T23:16:56.450Z,9.50
2022-12-29T23:21:59.358Z,10.20
2022-12-29T23:27:02.251Z,12.10
2022-12-29T23:32:05.258Z,11.40
2022-12-29T23:37:08.179Z,10.30
2022-12-29T23:42:12.544Z,11.10
2022-12-29T23:47:15.513Z,9.80
2022-12-29T23:52:18.414Z,9.50
2022-12-29T23:57:21.317Z,9.30
